sensor_id;sensor_type;location;lat;lon;timestamp;P1;durP1;ratioP1;P2;durP2;ratioP2
77453;SDS011;66538;53.150;18.160;2023-02-28T00:01:14;28.00;;;11.30;;
77453;SDS011;66538;53.150;18.160;2023-02-28T00:03:41;27.10;;;10.80;;
77453;SDS011;66538;53.150;18.160;2023-02-28T00:06:08;30.00;;;11.30;;
77453;SDS011;66538;53.150;18.160;2023-02-28T00:08:38;29.20;;;12.20;;
77453;SDS011;66538;53.150;18.160;2023-02-28T00:11:06;34.00;;;12.10;;
77453;SDS011;66538;53.150;18.160;2023-02-28T00:13:35;55.50;;;17.80;;
77453;SDS011;66538;53.150;18.160;2023-02-28T00:18:32;65.70;;;20.10;;
77453;SDS011;66538;53.150;18.160;2023-02-28T00:20:59;60.90;;;18.20;;
77453;SDS011;66538;53.150;18.160;2023-02-28T00:23:26;69.00;;;17.80;;
77453;SDS011;66538;53.150;18.160;2023-02-28T00:25:54;44.00;;;13.40;;
77453;SDS011;66538;53.150;18.160;2023-02-28T00:28:21;41.40;;;13.10;;
77453;SDS011;66538;53.150;18.160;2023-02-28T00:30:49;44.30;;;14.50;;
77453;SDS011;66538;53.150;18.160;2023-02-28T00:33:16;27.80;;;9.80;;
77453;SDS011;66538;53.150;18.160;2023-02-28T00:35:43;32.40;;;12.50;;
77453;SDS011;66538;53.150;18.160;2023-02-28T00:38:15;66.30;;;16.90;;
77453;SDS011;66538;53.150;18.160;2023-02-28T00:40:42;58.20;;;18.80;;
77453;SDS011;66538;53.150;18.160;2023-02-28T00:43:11;56.20;;;16.70;;
77453;SDS011;66538;53.150;18.160;2023-02-28T00:45:37;48.20;;;13.70;;
77453;SDS011;66538;53.150;18.160;2023-02-28T00:48:04;63.30;;;19.10;;
77453;SDS011;66538;53.150;18.160;2023-02-28T00:50:31;43.40;;;13.30;;
77453;SDS011;66538;53.150;18.160;2023-02-28T00:52:57;32.40;;;11.00;;
77453;SDS011;66538;53.150;18.160;2023-02-28T00:55:24;29.40;;;11.20;;
77453;SDS011;66538;53.150;18.160;2023-02-28T00:57:50;30.80;;;11.40;;
77453;SDS011;66538;53.150;18.160;2023-02-28T01:00:17;21.10;;;9.50;;
77453;SDS011;66538;53.150;18.160;2023-02-28T01:02:44;26.10;;;10.00;;
77453;SDS011;66538;53.150;18.160;2023-02-28T01:05:11;20.60;;;8.60;;
77453;SDS011;66538;53.150;18.160;2023-02-28T01:07:38;17.80;;;7.70;;
77453;SDS011;66538;53.150;18.160;2023-02-28T01:10:04;28.90;;;9.60;;
77453;SDS011;66538;53.150;18.160;2023-02-28T01:12:32;18.50;;;7.80;;
77453;SDS011;66538;53.150;18.160;2023-02-28T01:14:58;21.00;;;8.10;;
77453;SDS011;66538;53.150;18.160;2023-02-28T01:17:25;29.70;;;11.80;;
77453;SDS011;66538;53.150;18.160;2023-02-28T01:19:53;35.30;;;10.50;;
77453;SDS011;66538;53.150;18.160;2023-02-28T01:22:24;25.70;;;9.00;;
77453;SDS011;66538;53.150;18.160;2023-02-28T01:24:51;16.20;;;7.10;;
77453;SDS011;66538;53.150;18.160;2023-02-28T01:27:18;24.10;;;10.30;;
77453;SDS011;66538;53.150;18.160;2023-02-28T01:29:45;26.80;;;9.40;;
77453;SDS011;66538;53.150;18.160;2023-02-28T01:32:12;19.70;;;8.60;;
77453;SDS011;66538;53.150;18.160;2023-02-28T01:34:38;23.90;;;8.20;;
77453;SDS011;66538;53.150;18.160;2023-02-28T01:37:05;23.50;;;8.60;;
77453;SDS011;66538;53.150;18.160;2023-02-28T01:39:31;23.00;;;9.60;;
77453;SDS011;66538;53.150;18.160;2023-02-28T01:41:58;23.30;;;8.90;;
77453;SDS011;66538;53.150;18.160;2023-02-28T01:47:29;25.00;;;9.10;;
77453;SDS011;66538;53.150;18.160;2023-02-28T01:50:01;32.00;;;11.30;;
77453;SDS011;66538;53.150;18.160;2023-02-28T01:52:30;32.20;;;11.60;;
77453;SDS011;66538;53.150;18.160;2023-02-28T01:54:59;31.30;;;11.50;;
77453;SDS011;66538;53.150;18.160;2023-02-28T01:57:37;30.00;;;11.60;;
77453;SDS011;66538;53.150;18.160;2023-02-28T02:00:09;27.10;;;10.20;;
77453;SDS011;66538;53.150;18.160;2023-02-28T02:02:40;23.80;;;9.50;;
77453;SDS011;66538;53.150;18.160;2023-02-28T02:05:11;24.70;;;10.10;;
77453;SDS011;66538;53.150;18.160;2023-02-28T02:07:41;22.80;;;10.20;;
77453;SDS011;66538;53.150;18.160;2023-02-28T02:15:21;22.50;;;11.10;;
77453;SDS011;66538;53.150;18.160;2023-02-28T02:17:57;23.30;;;9.80;;
77453;SDS011;66538;53.150;18.160;2023-02-28T02:23:40;33.30;;;11.30;;
77453;SDS011;66538;53.150;18.160;2023-02-28T02:26:40;22.50;;;9.70;;
77453;SDS011;66538;53.150;18.160;2023-02-28T02:29:21;23.40;;;8.50;;
77453;SDS011;66538;53.150;18.160;2023-02-28T02:35:02;26.00;;;8.40;;
77453;SDS011;66538;53.150;18.160;2023-02-28T02:40:17;24.70;;;9.50;;
77453;SDS011;66538;53.150;18.160;2023-02-28T02:48:06;25.80;;;10.20;;
77453;SDS011;66538;53.150;18.160;2023-02-28T02:50:41;28.90;;;10.20;;
77453;SDS011;66538;53.150;18.160;2023-02-28T02:53:12;20.60;;;8.10;;
77453;SDS011;66538;53.150;18.160;2023-02-28T02:55:43;20.60;;;9.10;;
77453;SDS011;66538;53.150;18.160;2023-02-28T02:58:14;22.10;;;10.20;;
77453;SDS011;66538;53.150;18.160;2023-02-28T03:00:44;25.90;;;11.40;;
77453;SDS011;66538;53.150;18.160;2023-02-28T03:03:15;30.80;;;13.70;;
77453;SDS011;66538;53.150;18.160;2023-02-28T03:08:15;35.00;;;13.10;;
77453;SDS011;66538;53.150;18.160;2023-02-28T03:10:44;34.20;;;12.40;;
77453;SDS011;66538;53.150;18.160;2023-02-28T03:18:48;30.50;;;12.30;;
77453;SDS011;66538;53.150;18.160;2023-02-28T03:26:50;32.70;;;10.30;;
77453;SDS011;66538;53.150;18.160;2023-02-28T03:29:28;27.50;;;11.50;;
77453;SDS011;66538;53.150;18.160;2023-02-28T03:34:46;26.50;;;9.80;;
77453;SDS011;66538;53.150;18.160;2023-02-28T03:37:24;25.90;;;10.90;;
77453;SDS011;66538;53.150;18.160;2023-02-28T03:39:55;19.70;;;7.50;;
77453;SDS011;66538;53.150;18.160;2023-02-28T03:42:28;17.60;;;8.00;;
77453;SDS011;66538;53.150;18.160;2023-02-28T03:44:58;32.10;;;11.80;;
77453;SDS011;66538;53.150;18.160;2023-02-28T03:47:45;34.30;;;11.80;;
77453;SDS011;66538;53.150;18.160;2023-02-28T03:50:20;15.20;;;5.90;;
77453;SDS011;66538;53.150;18.160;2023-02-28T03:52:51;26.50;;;8.30;;
77453;SDS011;66538;53.150;18.160;2023-02-28T03:55:28;27.50;;;11.40;;
77453;SDS011;66538;53.150;18.160;2023-02-28T03:58:06;23.90;;;9.20;;
77453;SDS011;66538;53.150;18.160;2023-02-28T04:00:43;24.20;;;8.50;;
77453;SDS011;66538;53.150;18.160;2023-02-28T04:03:13;21.30;;;8.70;;
77453;SDS011;66538;53.150;18.160;2023-02-28T04:05:46;20.00;;;8.80;;
77453;SDS011;66538;53.150;18.160;2023-02-28T04:08:16;23.80;;;9.90;;
77453;SDS011;66538;53.150;18.160;2023-02-28T04:10:43;12.50;;;6.10;;
77453;SDS011;66538;53.150;18.160;2023-02-28T04:13:14;32.90;;;12.70;;
77453;SDS011;66538;53.150;18.160;2023-02-28T04:15:41;32.70;;;12.00;;
77453;SDS011;66538;53.150;18.160;2023-02-28T04:18:08;25.20;;;10.70;;
77453;SDS011;66538;53.150;18.160;2023-02-28T04:20:34;33.10;;;12.20;;
77453;SDS011;66538;53.150;18.160;2023-02-28T04:23:01;31.60;;;12.20;;
77453;SDS011;66538;53.150;18.160;2023-02-28T04:25:27;30.70;;;11.90;;
77453;SDS011;66538;53.150;18.160;2023-02-28T04:27:54;26.30;;;10.30;;
77453;SDS011;66538;53.150;18.160;2023-02-28T04:30:21;24.10;;;9.60;;
77453;SDS011;66538;53.150;18.160;2023-02-28T04:32:47;36.80;;;13.30;;
77453;SDS011;66538;53.150;18.160;2023-02-28T04:35:14;38.40;;;12.40;;
77453;SDS011;66538;53.150;18.160;2023-02-28T04:37:40;35.00;;;12.60;;
77453;SDS011;66538;53.150;18.160;2023-02-28T04:40:07;29.10;;;11.50;;
77453;SDS011;66538;53.150;18.160;2023-02-28T04:42:34;28.00;;;13.60;;
77453;SDS011;66538;53.150;18.160;2023-02-28T04:45:02;33.70;;;13.80;;
77453;SDS011;66538;53.150;18.160;2023-02-28T04:47:29;25.30;;;11.00;;
77453;SDS011;66538;53.150;18.160;2023-02-28T04:49:56;27.80;;;12.80;;
77453;SDS011;66538;53.150;18.160;2023-02-28T04:52:23;31.90;;;14.40;;
77453;SDS011;66538;53.150;18.160;2023-02-28T04:54:50;36.80;;;15.30;;
77453;SDS011;66538;53.150;18.160;2023-02-28T04:57:16;42.00;;;16.90;;
77453;SDS011;66538;53.150;18.160;2023-02-28T04:59:43;32.50;;;15.30;;
77453;SDS011;66538;53.150;18.160;2023-02-28T05:02:10;39.70;;;15.50;;
77453;SDS011;66538;53.150;18.160;2023-02-28T05:04:37;32.00;;;14.20;;
77453;SDS011;66538;53.150;18.160;2023-02-28T05:07:03;23.70;;;12.00;;
77453;SDS011;66538;53.150;18.160;2023-02-28T05:09:30;38.80;;;17.50;;
77453;SDS011;66538;53.150;18.160;2023-02-28T05:11:56;41.50;;;18.20;;
77453;SDS011;66538;53.150;18.160;2023-02-28T05:14:24;30.70;;;15.50;;
77453;SDS011;66538;53.150;18.160;2023-02-28T05:16:50;36.70;;;17.30;;
77453;SDS011;66538;53.150;18.160;2023-02-28T05:19:17;37.40;;;16.20;;
77453;SDS011;66538;53.150;18.160;2023-02-28T05:21:50;19.20;;;9.80;;
77453;SDS011;66538;53.150;18.160;2023-02-28T05:24:19;38.40;;;16.00;;
77453;SDS011;66538;53.150;18.160;2023-02-28T05:26:50;34.30;;;15.30;;
77453;SDS011;66538;53.150;18.160;2023-02-28T05:29:19;36.10;;;16.20;;
77453;SDS011;66538;53.150;18.160;2023-02-28T05:31:45;31.80;;;12.80;;
77453;SDS011;66538;53.150;18.160;2023-02-28T05:34:12;29.50;;;13.70;;
77453;SDS011;66538;53.150;18.160;2023-02-28T05:36:39;36.20;;;14.90;;
77453;SDS011;66538;53.150;18.160;2023-02-28T05:39:06;27.70;;;12.30;;
77453;SDS011;66538;53.150;18.160;2023-02-28T05:41:39;23.60;;;9.60;;
77453;SDS011;66538;53.150;18.160;2023-02-28T05:44:09;19.70;;;8.70;;
77453;SDS011;66538;53.150;18.160;2023-02-28T05:46:37;25.40;;;11.50;;
77453;SDS011;66538;53.150;18.160;2023-02-28T05:49:04;20.10;;;8.90;;
77453;SDS011;66538;53.150;18.160;2023-02-28T05:51:31;24.00;;;11.30;;
77453;SDS011;66538;53.150;18.160;2023-02-28T05:53:58;13.40;;;5.80;;
77453;SDS011;66538;53.150;18.160;2023-02-28T05:56:27;30.00;;;11.00;;
77453;SDS011;66538;53.150;18.160;2023-02-28T05:58:54;27.90;;;13.50;;
77453;SDS011;66538;53.150;18.160;2023-02-28T06:03:57;33.40;;;13.30;;
77453;SDS011;66538;53.150;18.160;2023-02-28T06:08:53;50.60;;;20.60;;
77453;SDS011;66538;53.150;18.160;2023-02-28T06:11:20;68.80;;;24.70;;
77453;SDS011;66538;53.150;18.160;2023-02-28T06:13:47;88.50;;;28.80;;
77453;SDS011;66538;53.150;18.160;2023-02-28T06:16:13;81.90;;;29.70;;
77453;SDS011;66538;53.150;18.160;2023-02-28T06:18:40;84.10;;;27.20;;
77453;SDS011;66538;53.150;18.160;2023-02-28T06:21:07;53.80;;;19.40;;
77453;SDS011;66538;53.150;18.160;2023-02-28T06:23:35;44.00;;;17.90;;
77453;SDS011;66538;53.150;18.160;2023-02-28T06:26:01;49.00;;;19.80;;
77453;SDS011;66538;53.150;18.160;2023-02-28T06:28:28;72.30;;;24.00;;
77453;SDS011;66538;53.150;18.160;2023-02-28T06:30:55;53.10;;;19.20;;
77453;SDS011;66538;53.150;18.160;2023-02-28T06:33:22;38.60;;;16.10;;
77453;SDS011;66538;53.150;18.160;2023-02-28T06:35:52;44.70;;;18.10;;
77453;SDS011;66538;53.150;18.160;2023-02-28T06:38:18;44.00;;;15.30;;
77453;SDS011;66538;53.150;18.160;2023-02-28T06:40:52;48.20;;;18.30;;
77453;SDS011;66538;53.150;18.160;2023-02-28T06:43:23;42.00;;;16.50;;
77453;SDS011;66538;53.150;18.160;2023-02-28T06:45:50;45.70;;;16.50;;
77453;SDS011;66538;53.150;18.160;2023-02-28T06:48:17;37.30;;;15.90;;
77453;SDS011;66538;53.150;18.160;2023-02-28T06:50:44;37.00;;;14.40;;
77453;SDS011;66538;53.150;18.160;2023-02-28T06:53:10;30.60;;;12.80;;
77453;SDS011;66538;53.150;18.160;2023-02-28T06:55:37;26.10;;;11.80;;
77453;SDS011;66538;53.150;18.160;2023-02-28T06:58:05;29.90;;;12.30;;
77453;SDS011;66538;53.150;18.160;2023-02-28T07:00:41;29.10;;;12.50;;
77453;SDS011;66538;53.150;18.160;2023-02-28T07:03:10;28.40;;;13.60;;
77453;SDS011;66538;53.150;18.160;2023-02-28T07:05:37;32.20;;;12.80;;
77453;SDS011;66538;53.150;18.160;2023-02-28T07:08:06;29.20;;;12.20;;
77453;SDS011;66538;53.150;18.160;2023-02-28T07:10:32;29.20;;;13.50;;
77453;SDS011;66538;53.150;18.160;2023-02-28T07:12:59;25.20;;;12.50;;
77453;SDS011;66538;53.150;18.160;2023-02-28T07:15:26;25.50;;;11.90;;
77453;SDS011;66538;53.150;18.160;2023-02-28T07:17:53;26.40;;;13.20;;
77453;SDS011;66538;53.150;18.160;2023-02-28T07:20:19;31.40;;;14.90;;
77453;SDS011;66538;53.150;18.160;2023-02-28T07:22:46;33.40;;;15.10;;
77453;SDS011;66538;53.150;18.160;2023-02-28T07:25:14;31.80;;;12.90;;
77453;SDS011;66538;53.150;18.160;2023-02-28T07:27:40;32.90;;;13.80;;
77453;SDS011;66538;53.150;18.160;2023-02-28T07:30:07;43.30;;;16.80;;
77453;SDS011;66538;53.150;18.160;2023-02-28T07:32:34;35.60;;;15.60;;
77453;SDS011;66538;53.150;18.160;2023-02-28T07:37:30;28.80;;;15.60;;
77453;SDS011;66538;53.150;18.160;2023-02-28T07:40:06;31.10;;;15.10;;
77453;SDS011;66538;53.150;18.160;2023-02-28T07:42:35;30.50;;;15.80;;
77453;SDS011;66538;53.150;18.160;2023-02-28T07:45:04;26.60;;;14.00;;
77453;SDS011;66538;53.150;18.160;2023-02-28T07:47:32;26.90;;;14.90;;
77453;SDS011;66538;53.150;18.160;2023-02-28T07:49:59;28.10;;;14.60;;
77453;SDS011;66538;53.150;18.160;2023-02-28T07:52:25;32.70;;;15.80;;
77453;SDS011;66538;53.150;18.160;2023-02-28T07:54:52;24.90;;;14.50;;
77453;SDS011;66538;53.150;18.160;2023-02-28T07:57:19;19.80;;;9.70;;
77453;SDS011;66538;53.150;18.160;2023-02-28T07:59:46;30.30;;;14.00;;
77453;SDS011;66538;53.150;18.160;2023-02-28T08:02:13;31.40;;;16.70;;
77453;SDS011;66538;53.150;18.160;2023-02-28T08:04:41;27.00;;;12.70;;
77453;SDS011;66538;53.150;18.160;2023-02-28T08:07:08;28.50;;;15.60;;
77453;SDS011;66538;53.150;18.160;2023-02-28T08:09:35;17.90;;;7.90;;
77453;SDS011;66538;53.150;18.160;2023-02-28T08:12:01;27.60;;;12.60;;
77453;SDS011;66538;53.150;18.160;2023-02-28T08:14:28;32.40;;;17.40;;
77453;SDS011;66538;53.150;18.160;2023-02-28T08:16:55;34.10;;;17.20;;
77453;SDS011;66538;53.150;18.160;2023-02-28T08:19:21;32.40;;;16.40;;
77453;SDS011;66538;53.150;18.160;2023-02-28T08:21:48;32.40;;;15.80;;
77453;SDS011;66538;53.150;18.160;2023-02-28T08:24:14;28.60;;;14.90;;
77453;SDS011;66538;53.150;18.160;2023-02-28T08:26:41;34.00;;;15.30;;
77453;SDS011;66538;53.150;18.160;2023-02-28T08:29:08;30.40;;;15.00;;
77453;SDS011;66538;53.150;18.160;2023-02-28T08:31:34;31.60;;;14.80;;
77453;SDS011;66538;53.150;18.160;2023-02-28T08:34:05;30.70;;;13.50;;
77453;SDS011;66538;53.150;18.160;2023-02-28T08:36:33;17.20;;;8.60;;
77453;SDS011;66538;53.150;18.160;2023-02-28T08:39:00;24.20;;;11.40;;
77453;SDS011;66538;53.150;18.160;2023-02-28T08:41:27;24.90;;;12.20;;
77453;SDS011;66538;53.150;18.160;2023-02-28T08:43:54;22.20;;;11.90;;
77453;SDS011;66538;53.150;18.160;2023-02-28T08:46:20;24.10;;;10.90;;
77453;SDS011;66538;53.150;18.160;2023-02-28T08:48:50;21.40;;;11.90;;
77453;SDS011;66538;53.150;18.160;2023-02-28T08:51:19;25.90;;;12.30;;
77453;SDS011;66538;53.150;18.160;2023-02-28T08:53:53;23.40;;;11.00;;
77453;SDS011;66538;53.150;18.160;2023-02-28T08:56:21;17.60;;;9.00;;
77453;SDS011;66538;53.150;18.160;2023-02-28T08:58:48;24.00;;;12.10;;
77453;SDS011;66538;53.150;18.160;2023-02-28T09:01:21;28.20;;;14.10;;
77453;SDS011;66538;53.150;18.160;2023-02-28T09:03:53;30.20;;;14.10;;
77453;SDS011;66538;53.150;18.160;2023-02-28T09:06:22;23.00;;;11.30;;
77453;SDS011;66538;53.150;18.160;2023-02-28T09:08:51;29.40;;;14.40;;
77453;SDS011;66538;53.150;18.160;2023-02-28T09:11:19;21.50;;;9.90;;
77453;SDS011;66538;53.150;18.160;2023-02-28T09:13:46;27.70;;;14.50;;
77453;SDS011;66538;53.150;18.160;2023-02-28T09:16:13;25.50;;;12.00;;
77453;SDS011;66538;53.150;18.160;2023-02-28T09:18:42;26.60;;;13.90;;
77453;SDS011;66538;53.150;18.160;2023-02-28T09:21:11;24.60;;;13.30;;
77453;SDS011;66538;53.150;18.160;2023-02-28T09:23:44;23.50;;;12.60;;
77453;SDS011;66538;53.150;18.160;2023-02-28T09:28:46;24.10;;;11.40;;
77453;SDS011;66538;53.150;18.160;2023-02-28T09:31:16;25.90;;;13.70;;
77453;SDS011;66538;53.150;18.160;2023-02-28T09:33:57;24.10;;;11.50;;
77453;SDS011;66538;53.150;18.160;2023-02-28T09:36:25;20.30;;;10.30;;
77453;SDS011;66538;53.150;18.160;2023-02-28T09:41:24;17.50;;;8.50;;
77453;SDS011;66538;53.150;18.160;2023-02-28T09:43:58;15.60;;;6.50;;
77453;SDS011;66538;53.150;18.160;2023-02-28T09:49:16;18.20;;;8.20;;
77453;SDS011;66538;53.150;18.160;2023-02-28T09:51:50;13.90;;;6.20;;
77453;SDS011;66538;53.150;18.160;2023-02-28T09:54:26;13.30;;;5.30;;
77453;SDS011;66538;53.150;18.160;2023-02-28T09:57:00;11.90;;;5.40;;
77453;SDS011;66538;53.150;18.160;2023-02-28T09:59:48;12.10;;;5.10;;
77453;SDS011;66538;53.150;18.160;2023-02-28T10:05:00;7.20;;;3.40;;
77453;SDS011;66538;53.150;18.160;2023-02-28T10:07:47;8.40;;;3.60;;
77453;SDS011;66538;53.150;18.160;2023-02-28T10:10:39;7.60;;;2.80;;
77453;SDS011;66538;53.150;18.160;2023-02-28T10:13:19;5.60;;;2.60;;
77453;SDS011;66538;53.150;18.160;2023-02-28T10:15:47;3.90;;;1.40;;
77453;SDS011;66538;53.150;18.160;2023-02-28T10:18:21;6.60;;;1.50;;
77453;SDS011;66538;53.150;18.160;2023-02-28T10:20:51;5.60;;;2.10;;
77453;SDS011;66538;53.150;18.160;2023-02-28T10:23:24;5.70;;;2.00;;
77453;SDS011;66538;53.150;18.160;2023-02-28T10:26:16;6.60;;;3.40;;
77453;SDS011;66538;53.150;18.160;2023-02-28T10:28:43;5.20;;;2.00;;
77453;SDS011;66538;53.150;18.160;2023-02-28T10:31:14;7.90;;;2.10;;
77453;SDS011;66538;53.150;18.160;2023-02-28T10:33:44;6.00;;;2.50;;
77453;SDS011;66538;53.150;18.160;2023-02-28T10:36:13;6.10;;;3.00;;
77453;SDS011;66538;53.150;18.160;2023-02-28T10:38:43;8.20;;;3.60;;
77453;SDS011;66538;53.150;18.160;2023-02-28T10:41:12;5.50;;;2.30;;
77453;SDS011;66538;53.150;18.160;2023-02-28T10:43:41;6.70;;;3.00;;
77453;SDS011;66538;53.150;18.160;2023-02-28T10:46:12;6.00;;;2.10;;
77453;SDS011;66538;53.150;18.160;2023-02-28T10:49:02;6.00;;;2.50;;
77453;SDS011;66538;53.150;18.160;2023-02-28T10:51:37;5.90;;;2.30;;
77453;SDS011;66538;53.150;18.160;2023-02-28T10:54:14;7.00;;;2.70;;
77453;SDS011;66538;53.150;18.160;2023-02-28T10:57:04;5.20;;;2.50;;
77453;SDS011;66538;53.150;18.160;2023-02-28T10:59:40;7.80;;;2.80;;
77453;SDS011;66538;53.150;18.160;2023-02-28T11:02:28;6.20;;;2.90;;
77453;SDS011;66538;53.150;18.160;2023-02-28T11:04:57;8.00;;;2.80;;
77453;SDS011;66538;53.150;18.160;2023-02-28T11:07:25;8.40;;;3.50;;
77453;SDS011;66538;53.150;18.160;2023-02-28T11:09:54;7.20;;;3.60;;
77453;SDS011;66538;53.150;18.160;2023-02-28T11:12:28;6.70;;;3.30;;
77453;SDS011;66538;53.150;18.160;2023-02-28T11:15:46;9.10;;;3.40;;
77453;SDS011;66538;53.150;18.160;2023-02-28T11:18:00;6.70;;;2.60;;
77453;SDS011;66538;53.150;18.160;2023-02-28T11:20:30;8.10;;;3.10;;
77453;SDS011;66538;53.150;18.160;2023-02-28T11:23:00;5.50;;;1.40;;
77453;SDS011;66538;53.150;18.160;2023-02-28T11:25:33;4.20;;;2.00;;
77453;SDS011;66538;53.150;18.160;2023-02-28T11:28:04;7.50;;;3.10;;
77453;SDS011;66538;53.150;18.160;2023-02-28T11:30:34;6.00;;;3.00;;
77453;SDS011;66538;53.150;18.160;2023-02-28T11:33:23;7.00;;;3.30;;
77453;SDS011;66538;53.150;18.160;2023-02-28T11:36:14;10.00;;;4.20;;
77453;SDS011;66538;53.150;18.160;2023-02-28T11:38:47;7.10;;;2.60;;
77453;SDS011;66538;53.150;18.160;2023-02-28T11:44:29;5.60;;;1.90;;
77453;SDS011;66538;53.150;18.160;2023-02-28T11:47:32;7.50;;;3.50;;
77453;SDS011;66538;53.150;18.160;2023-02-28T11:50:08;6.90;;;2.60;;
77453;SDS011;66538;53.150;18.160;2023-02-28T11:55:26;7.50;;;3.90;;
77453;SDS011;66538;53.150;18.160;2023-02-28T12:06:44;13.10;;;5.90;;
77453;SDS011;66538;53.150;18.160;2023-02-28T12:12:19;9.10;;;4.50;;
77453;SDS011;66538;53.150;18.160;2023-02-28T12:15:00;9.60;;;3.90;;
77453;SDS011;66538;53.150;18.160;2023-02-28T12:17:53;8.50;;;3.70;;
77453;SDS011;66538;53.150;18.160;2023-02-28T12:28:44;10.20;;;4.50;;
77453;SDS011;66538;53.150;18.160;2023-02-28T12:31:23;13.40;;;7.10;;
77453;SDS011;66538;53.150;18.160;2023-02-28T12:33:55;10.20;;;4.80;;
77453;SDS011;66538;53.150;18.160;2023-02-28T12:36:26;12.80;;;5.50;;
77453;SDS011;66538;53.150;18.160;2023-02-28T12:39:02;12.80;;;6.10;;
77453;SDS011;66538;53.150;18.160;2023-02-28T12:44:20;24.60;;;10.30;;
77453;SDS011;66538;53.150;18.160;2023-02-28T12:46:58;15.30;;;7.40;;
77453;SDS011;66538;53.150;18.160;2023-02-28T12:49:30;15.10;;;7.10;;
77453;SDS011;66538;53.150;18.160;2023-02-28T12:52:00;12.60;;;6.00;;
77453;SDS011;66538;53.150;18.160;2023-02-28T12:54:36;18.20;;;8.40;;
77453;SDS011;66538;53.150;18.160;2023-02-28T12:57:22;9.20;;;6.20;;
77453;SDS011;66538;53.150;18.160;2023-02-28T13:00:08;13.30;;;5.70;;
77453;SDS011;66538;53.150;18.160;2023-02-28T13:02:46;11.20;;;5.50;;
77453;SDS011;66538;53.150;18.160;2023-02-28T13:08:04;10.40;;;5.30;;
77453;SDS011;66538;53.150;18.160;2023-02-28T13:10:38;12.30;;;5.20;;
77453;SDS011;66538;53.150;18.160;2023-02-28T13:13:14;14.80;;;8.50;;
77453;SDS011;66538;53.150;18.160;2023-02-28T13:15:57;9.50;;;5.00;;
77453;SDS011;66538;53.150;18.160;2023-02-28T13:18:38;10.60;;;5.60;;
77453;SDS011;66538;53.150;18.160;2023-02-28T13:21:23;8.40;;;4.50;;
77453;SDS011;66538;53.150;18.160;2023-02-28T13:39:45;7.70;;;3.50;;
77453;SDS011;66538;53.150;18.160;2023-02-28T13:47:42;8.10;;;3.00;;
77453;SDS011;66538;53.150;18.160;2023-02-28T13:55:37;5.50;;;3.00;;
77453;SDS011;66538;53.150;18.160;2023-02-28T14:01:12;6.10;;;2.70;;
77453;SDS011;66538;53.150;18.160;2023-02-28T14:03:58;6.60;;;3.60;;
77453;SDS011;66538;53.150;18.160;2023-02-28T14:07:06;6.90;;;2.80;;
77453;SDS011;66538;53.150;18.160;2023-02-28T14:09:38;5.90;;;2.70;;
77453;SDS011;66538;53.150;18.160;2023-02-28T14:15:38;6.10;;;3.20;;
77453;SDS011;66538;53.150;18.160;2023-02-28T14:18:14;5.30;;;2.50;;
77453;SDS011;66538;53.150;18.160;2023-02-28T14:20:44;5.00;;;2.70;;
77453;SDS011;66538;53.150;18.160;2023-02-28T14:28:53;5.50;;;2.50;;
77453;SDS011;66538;53.150;18.160;2023-02-28T14:31:38;5.60;;;2.40;;
77453;SDS011;66538;53.150;18.160;2023-02-28T14:36:45;5.80;;;2.80;;
77453;SDS011;66538;53.150;18.160;2023-02-28T14:39:14;4.60;;;2.60;;
77453;SDS011;66538;53.150;18.160;2023-02-28T14:41:45;5.60;;;2.60;;
77453;SDS011;66538;53.150;18.160;2023-02-28T14:44:19;5.30;;;2.60;;
77453;SDS011;66538;53.150;18.160;2023-02-28T14:46:58;5.80;;;2.60;;
77453;SDS011;66538;53.150;18.160;2023-02-28T14:49:35;5.70;;;2.80;;
77453;SDS011;66538;53.150;18.160;2023-02-28T14:52:20;6.40;;;2.80;;
77453;SDS011;66538;53.150;18.160;2023-02-28T14:54:53;6.30;;;2.60;;
77453;SDS011;66538;53.150;18.160;2023-02-28T14:57:30;5.20;;;2.40;;
77453;SDS011;66538;53.150;18.160;2023-02-28T15:00:46;6.50;;;3.00;;
77453;SDS011;66538;53.150;18.160;2023-02-28T15:02:50;7.30;;;3.20;;
77453;SDS011;66538;53.150;18.160;2023-02-28T15:05:40;6.20;;;2.80;;
77453;SDS011;66538;53.150;18.160;2023-02-28T15:08:09;5.30;;;3.10;;
77453;SDS011;66538;53.150;18.160;2023-02-28T15:10:40;5.70;;;3.00;;
77453;SDS011;66538;53.150;18.160;2023-02-28T15:13:14;7.30;;;3.30;;
77453;SDS011;66538;53.150;18.160;2023-02-28T15:21:12;6.80;;;3.40;;
77453;SDS011;66538;53.150;18.160;2023-02-28T15:23:44;6.70;;;2.60;;
77453;SDS011;66538;53.150;18.160;2023-02-28T15:26:15;5.60;;;2.80;;
77453;SDS011;66538;53.150;18.160;2023-02-28T15:28:45;6.20;;;2.70;;
77453;SDS011;66538;53.150;18.160;2023-02-28T15:31:19;5.70;;;2.60;;
77453;SDS011;66538;53.150;18.160;2023-02-28T15:33:56;5.60;;;2.90;;
77453;SDS011;66538;53.150;18.160;2023-02-28T15:36:29;5.60;;;2.60;;
77453;SDS011;66538;53.150;18.160;2023-02-28T15:39:00;5.80;;;2.70;;
77453;SDS011;66538;53.150;18.160;2023-02-28T15:41:28;5.10;;;2.20;;
77453;SDS011;66538;53.150;18.160;2023-02-28T15:46:45;7.20;;;3.20;;
77453;SDS011;66538;53.150;18.160;2023-02-28T15:49:25;8.90;;;3.90;;
77453;SDS011;66538;53.150;18.160;2023-02-28T15:51:52;6.50;;;2.90;;
77453;SDS011;66538;53.150;18.160;2023-02-28T15:54:23;7.50;;;3.10;;
77453;SDS011;66538;53.150;18.160;2023-02-28T15:56:55;10.20;;;3.60;;
77453;SDS011;66538;53.150;18.160;2023-02-28T15:59:27;8.60;;;3.70;;
77453;SDS011;66538;53.150;18.160;2023-02-28T16:02:13;6.10;;;2.70;;
77453;SDS011;66538;53.150;18.160;2023-02-28T16:04:57;7.20;;;3.10;;
77453;SDS011;66538;53.150;18.160;2023-02-28T16:07:34;7.70;;;3.10;;
77453;SDS011;66538;53.150;18.160;2023-02-28T16:14:59;9.10;;;3.40;;
77453;SDS011;66538;53.150;18.160;2023-02-28T16:17:30;7.20;;;3.10;;
77453;SDS011;66538;53.150;18.160;2023-02-28T16:19:59;10.10;;;3.40;;
77453;SDS011;66538;53.150;18.160;2023-02-28T16:22:26;7.30;;;2.70;;
77453;SDS011;66538;53.150;18.160;2023-02-28T16:24:53;8.80;;;3.20;;
77453;SDS011;66538;53.150;18.160;2023-02-28T16:27:32;8.00;;;3.30;;
77453;SDS011;66538;53.150;18.160;2023-02-28T16:30:03;6.40;;;2.80;;
77453;SDS011;66538;53.150;18.160;2023-02-28T16:32:32;10.60;;;3.60;;
77453;SDS011;66538;53.150;18.160;2023-02-28T16:35:02;8.20;;;3.50;;
77453;SDS011;66538;53.150;18.160;2023-02-28T16:37:29;8.30;;;3.50;;
77453;SDS011;66538;53.150;18.160;2023-02-28T16:39:56;8.20;;;3.30;;
77453;SDS011;66538;53.150;18.160;2023-02-28T16:42:23;6.70;;;2.90;;
77453;SDS011;66538;53.150;18.160;2023-02-28T16:44:53;6.30;;;3.30;;
77453;SDS011;66538;53.150;18.160;2023-02-28T16:47:21;10.30;;;3.50;;
77453;SDS011;66538;53.150;18.160;2023-02-28T16:49:48;7.80;;;3.30;;
77453;SDS011;66538;53.150;18.160;2023-02-28T16:52:15;10.30;;;3.50;;
77453;SDS011;66538;53.150;18.160;2023-02-28T16:54:41;8.80;;;3.50;;
77453;SDS011;66538;53.150;18.160;2023-02-28T16:57:17;10.70;;;4.00;;
77453;SDS011;66538;53.150;18.160;2023-02-28T16:59:47;12.10;;;3.70;;
77453;SDS011;66538;53.150;18.160;2023-02-28T17:02:17;10.00;;;3.30;;
77453;SDS011;66538;53.150;18.160;2023-02-28T17:04:47;8.40;;;3.30;;
77453;SDS011;66538;53.150;18.160;2023-02-28T17:07:15;8.70;;;3.30;;